sensor_id;sensor_type;location;lat;lon;timestamp;pressure;altitude;pressure_sealevel;temperature;humidity
40384;BME280;26097;42.366;23.818;2022-07-23T00:00:10;94465.91;;;14.64;86.96
40384;BME280;26097;42.366;23.818;2022-07-23T00:03:10;94462.41;;;14.54;87.36
40384;BME280;26097;42.366;23.818;2022-07-23T00:06:11;94464.47;;;14.50;87.86
40384;BME280;26097;42.366;23.818;2022-07-23T00:09:11;94469.69;;;14.40;88.57
40384;BME280;26097;42.366;23.818;2022-07-23T00:12:12;94473.66;;;14.35;89.10
40384;BME280;26097;42.366;23.818;2022-07-23T00:15:12;94475.69;;;14.31;89.04
40384;BME280;26097;42.366;23.818;2022-07-23T00:18:13;94481.84;;;14.41;88.69
40384;BME280;26097;42.366;23.818;2022-07-23T00:21:13;94474.94;;;14.40;88.59
40384;BME280;26097;42.366;23.818;2022-07-23T00:24:13;94473.91;;;14.32;89.05
40384;BME280;26097;42.366;23.818;2022-07-23T00:27:14;94473.53;;;14.36;88.87
40384;BME280;26097;42.366;23.818;2022-07-23T00:30:14;94475.19;;;14.37;88.70
40384;BME280;26097;42.366;23.818;2022-07-23T00:33:15;94463.97;;;14.25;89.35
40384;BME280;26097;42.366;23.818;2022-07-23T00:36:15;94463.38;;;14.22;89.52
40384;BME280;26097;42.366;23.818;2022-07-23T00:39:16;94462.25;;;14.24;89.32
40384;BME280;26097;42.366;23.818;2022-07-23T00:42:16;94456.47;;;14.21;89.78
40384;BME280;26097;42.366;23.818;2022-07-23T00:45:17;94456.97;;;14.14;89.95
40384;BME280;26097;42.366;23.818;2022-07-23T00:48:17;94459.84;;;14.11;90.05
40384;BME280;26097;42.366;23.818;2022-07-23T00:51:18;94461.22;;;14.06;90.68
40384;BME280;26097;42.366;23.818;2022-07-23T00:54:19;94460.31;;;13.95;91.04
40384;BME280;26097;42.366;23.818;2022-07-23T00:57:19;94458.78;;;13.93;91.25
40384;BME280;26097;42.366;23.818;2022-07-23T01:00:20;94466.63;;;13.93;91.25
40384;BME280;26097;42.366;23.818;2022-07-23T01:03:21;94458.78;;;13.93;91.40
40384;BME280;26097;42.366;23.818;2022-07-23T01:06:22;94466.41;;;13.96;91.34
40384;BME280;26097;42.366;23.818;2022-07-23T01:09:22;94453.22;;;14.07;90.91
40384;BME280;26097;42.366;23.818;2022-07-23T01:12:23;94457.75;;;14.05;90.86
40384;BME280;26097;42.366;23.818;2022-07-23T01:15:23;94456.09;;;14.04;91.23
40384;BME280;26097;42.366;23.818;2022-07-23T01:18:24;94452.09;;;14.00;91.31
40384;BME280;26097;42.366;23.818;2022-07-23T01:21:24;94459.19;;;13.88;91.81
40384;BME280;26097;42.366;23.818;2022-07-23T01:24:24;94451.00;;;13.81;92.41
40384;BME280;26097;42.366;23.818;2022-07-23T01:27:25;94448.16;;;13.73;92.64
40384;BME280;26097;42.366;23.818;2022-07-23T01:30:25;94450.56;;;13.76;92.63
40384;BME280;26097;42.366;23.818;2022-07-23T01:33:26;94448.03;;;13.75;92.42
40384;BME280;26097;42.366;23.818;2022-07-23T01:36:26;94444.47;;;13.76;92.64
40384;BME280;26097;42.366;23.818;2022-07-23T01:39:27;94443.41;;;13.78;92.44
40384;BME280;26097;42.366;23.818;2022-07-23T01:42:27;94447.78;;;13.78;92.57
40384;BME280;26097;42.366;23.818;2022-07-23T01:45:28;94442.81;;;13.75;92.91
40384;BME280;26097;42.366;23.818;2022-07-23T01:48:28;94435.28;;;13.81;92.29
40384;BME280;26097;42.366;23.818;2022-07-23T01:51:29;94434.94;;;13.75;92.47
40384;BME280;26097;42.366;23.818;2022-07-23T01:54:32;94434.84;;;13.76;92.55
40384;BME280;26097;42.366;23.818;2022-07-23T01:57:32;94438.91;;;13.69;92.85
40384;BME280;26097;42.366;23.818;2022-07-23T02:00:34;94442.66;;;13.55;93.64
40384;BME280;26097;42.366;23.818;2022-07-23T02:03:34;94441.59;;;13.57;93.30
40384;BME280;26097;42.366;23.818;2022-07-23T02:06:35;94441.34;;;13.61;92.92
40384;BME280;26097;42.366;23.818;2022-07-23T02:09:35;94444.00;;;13.49;93.04
40384;BME280;26097;42.366;23.818;2022-07-23T02:12:36;94448.41;;;13.37;93.32
40384;BME280;26097;42.366;23.818;2022-07-23T02:15:36;94446.88;;;13.35;93.03
40384;BME280;26097;42.366;23.818;2022-07-23T02:18:36;94448.06;;;13.31;93.02
40384;BME280;26097;42.366;23.818;2022-07-23T02:21:37;94447.88;;;13.22;93.31
40384;BME280;26097;42.366;23.818;2022-07-23T02:24:37;94445.03;;;13.14;93.05
40384;BME280;26097;42.366;23.818;2022-07-23T02:27:38;94448.03;;;13.09;93.12
40384;BME280;26097;42.366;23.818;2022-07-23T02:30:38;94443.41;;;13.02;93.26
40384;BME280;26097;42.366;23.818;2022-07-23T02:33:40;94449.34;;;13.04;92.92
40384;BME280;26097;42.366;23.818;2022-07-23T02:36:40;94443.78;;;12.97;92.79
40384;BME280;26097;42.366;23.818;2022-07-23T02:39:41;94451.03;;;12.93;92.75
40384;BME280;26097;42.366;23.818;2022-07-23T02:42:41;94449.63;;;12.89;92.74
40384;BME280;26097;42.366;23.818;2022-07-23T02:45:42;94445.59;;;12.85;92.93
40384;BME280;26097;42.366;23.818;2022-07-23T02:48:42;94451.16;;;12.92;92.37
40384;BME280;26097;42.366;23.818;2022-07-23T02:51:43;94457.94;;;12.94;92.38
40384;BME280;26097;42.366;23.818;2022-07-23T02:54:43;94461.53;;;12.82;92.72
40384;BME280;26097;42.366;23.818;2022-07-23T02:57:44;94465.56;;;12.86;92.62
40384;BME280;26097;42.366;23.818;2022-07-23T03:00:44;94466.28;;;12.88;92.64
40384;BME280;26097;42.366;23.818;2022-07-23T03:03:44;94464.84;;;12.84;93.28
40384;BME280;26097;42.366;23.818;2022-07-23T03:06:45;94457.38;;;12.79;93.36
40384;BME280;26097;42.366;23.818;2022-07-23T03:09:45;94461.88;;;12.77;93.58
40384;BME280;26097;42.366;23.818;2022-07-23T03:12:46;94465.34;;;12.78;93.85
40384;BME280;26097;42.366;23.818;2022-07-23T03:15:46;94464.38;;;12.90;93.33
40384;BME280;26097;42.366;23.818;2022-07-23T03:18:47;94472.81;;;12.94;93.10
40384;BME280;26097;42.366;23.818;2022-07-23T03:21:47;94472.91;;;12.92;93.20
40384;BME280;26097;42.366;23.818;2022-07-23T03:24:47;94475.53;;;12.92;93.20
40384;BME280;26097;42.366;23.818;2022-07-23T03:27:53;94483.38;;;13.04;92.80
40384;BME280;26097;42.366;23.818;2022-07-23T03:30:54;94483.47;;;13.02;93.00
40384;BME280;26097;42.366;23.818;2022-07-23T03:33:54;94482.41;;;13.05;92.97
40384;BME280;26097;42.366;23.818;2022-07-23T03:36:55;94478.25;;;13.13;92.81
40384;BME280;26097;42.366;23.818;2022-07-23T03:39:55;94482.38;;;13.16;92.65
40384;BME280;26097;42.366;23.818;2022-07-23T03:42:56;94480.81;;;13.25;92.16
40384;BME280;26097;42.366;23.818;2022-07-23T03:45:56;94483.31;;;13.26;92.14
40384;BME280;26097;42.366;23.818;2022-07-23T03:48:57;94476.16;;;13.40;92.00
40384;BME280;26097;42.366;23.818;2022-07-23T03:51:57;94472.94;;;13.36;92.33
40384;BME280;26097;42.366;23.818;2022-07-23T03:54:57;94478.75;;;13.51;91.96
40384;BME280;26097;42.366;23.818;2022-07-23T03:57:58;94476.53;;;13.68;91.66
40384;BME280;26097;42.366;23.818;2022-07-23T04:00:58;94469.59;;;13.78;91.62
40384;BME280;26097;42.366;23.818;2022-07-23T04:03:59;94474.56;;;13.81;92.07
40384;BME280;26097;42.366;23.818;2022-07-23T04:06:59;94478.78;;;13.94;92.02
40384;BME280;26097;42.366;23.818;2022-07-23T04:10:01;94482.19;;;14.06;92.18
40384;BME280;26097;42.366;23.818;2022-07-23T04:13:02;94478.09;;;14.13;92.14
40384;BME280;26097;42.366;23.818;2022-07-23T04:16:02;94473.78;;;14.33;91.72
40384;BME280;26097;42.366;23.818;2022-07-23T04:19:04;94478.25;;;14.42;92.10
40384;BME280;26097;42.366;23.818;2022-07-23T04:22:05;94479.47;;;14.69;92.11
40384;BME280;26097;42.366;23.818;2022-07-23T04:25:06;94475.66;;;14.83;91.83
40384;BME280;26097;42.366;23.818;2022-07-23T04:28:06;94476.97;;;14.99;91.75
40384;BME280;26097;42.366;23.818;2022-07-23T04:31:07;94474.09;;;15.12;92.33
40384;BME280;26097;42.366;23.818;2022-07-23T04:34:08;94472.88;;;15.26;92.30
40384;BME280;26097;42.366;23.818;2022-07-23T04:37:08;94472.34;;;15.42;92.32
40384;BME280;26097;42.366;23.818;2022-07-23T04:40:09;94464.47;;;15.62;92.68
40384;BME280;26097;42.366;23.818;2022-07-23T04:43:10;94466.41;;;15.79;92.96
40384;BME280;26097;42.366;23.818;2022-07-23T04:46:10;94468.06;;;16.00;92.88
40384;BME280;26097;42.366;23.818;2022-07-23T04:49:10;94467.06;;;16.21;92.79
40384;BME280;26097;42.366;23.818;2022-07-23T04:52:11;94468.00;;;16.39;92.67
40384;BME280;26097;42.366;23.818;2022-07-23T04:55:11;94472.22;;;16.60;92.14
40384;BME280;26097;42.366;23.818;2022-07-23T04:58:12;94476.97;;;16.84;91.66
40384;BME280;26097;42.366;23.818;2022-07-23T05:01:12;94467.75;;;17.08;90.48
40384;BME280;26097;42.366;23.818;2022-07-23T05:04:13;94471.78;;;17.31;89.48
40384;BME280;26097;42.366;23.818;2022-07-23T05:07:13;94470.94;;;17.48;91.12
40384;BME280;26097;42.366;23.818;2022-07-23T05:10:15;94463.50;;;17.62;91.77
40384;BME280;26097;42.366;23.818;2022-07-23T05:13:16;94465.31;;;17.79;91.67
40384;BME280;26097;42.366;23.818;2022-07-23T05:16:16;94459.84;;;17.99;91.33
40384;BME280;26097;42.366;23.818;2022-07-23T05:19:17;94460.00;;;18.16;91.04
40384;BME280;26097;42.366;23.818;2022-07-23T05:22:17;94455.34;;;18.36;91.01
40384;BME280;26097;42.366;23.818;2022-07-23T05:25:17;94452.97;;;18.51;90.46
40384;BME280;26097;42.366;23.818;2022-07-23T05:28:18;94456.66;;;18.66;90.72
40384;BME280;26097;42.366;23.818;2022-07-23T05:31:18;94457.06;;;18.80;90.43
40384;BME280;26097;42.366;23.818;2022-07-23T05:34:19;94458.13;;;18.95;89.29
40384;BME280;26097;42.366;23.818;2022-07-23T05:37:19;94459.56;;;19.16;89.09
40384;BME280;26097;42.366;23.818;2022-07-23T05:40:19;94459.41;;;19.34;89.27
40384;BME280;26097;42.366;23.818;2022-07-23T05:43:20;94461.78;;;19.46;89.58
40384;BME280;26097;42.366;23.818;2022-07-23T05:46:20;94461.81;;;19.62;88.39
40384;BME280;26097;42.366;23.818;2022-07-23T05:49:21;94464.66;;;19.86;87.16
40384;BME280;26097;42.366;23.818;2022-07-23T05:52:21;94458.88;;;20.07;87.15
40384;BME280;26097;42.366;23.818;2022-07-23T05:55:21;94464.97;;;20.24;84.99
40384;BME280;26097;42.366;23.818;2022-07-23T05:58:22;94468.13;;;20.36;82.90
40384;BME280;26097;42.366;23.818;2022-07-23T06:01:22;94467.75;;;20.55;83.70
40384;BME280;26097;42.366;23.818;2022-07-23T06:04:23;94468.38;;;20.74;82.83
40384;BME280;26097;42.366;23.818;2022-07-23T06:07:23;94461.53;;;20.96;81.36
40384;BME280;26097;42.366;23.818;2022-07-23T06:10:23;94457.97;;;21.12;79.09
40384;BME280;26097;42.366;23.818;2022-07-23T06:13:24;94462.69;;;21.34;78.18
40384;BME280;26097;42.366;23.818;2022-07-23T06:16:24;94454.28;;;21.53;76.63
40384;BME280;26097;42.366;23.818;2022-07-23T06:19:25;94454.06;;;21.72;76.02
40384;BME280;26097;42.366;23.818;2022-07-23T06:22:26;94453.38;;;21.93;75.64
40384;BME280;26097;42.366;23.818;2022-07-23T06:25:26;94455.00;;;22.17;75.52
40384;BME280;26097;42.366;23.818;2022-07-23T06:28:27;94452.97;;;22.43;75.30
40384;BME280;26097;42.366;23.818;2022-07-23T06:31:27;94447.16;;;22.62;76.90
40384;BME280;26097;42.366;23.818;2022-07-23T06:34:28;94446.41;;;22.83;73.58
40384;BME280;26097;42.366;23.818;2022-07-23T06:37:28;94449.13;;;23.05;73.68
40384;BME280;26097;42.366;23.818;2022-07-23T06:40:29;94443.44;;;23.23;73.29
40384;BME280;26097;42.366;23.818;2022-07-23T06:43:30;94441.22;;;23.42;72.74
40384;BME280;26097;42.366;23.818;2022-07-23T06:46:31;94444.63;;;23.58;72.84
40384;BME280;26097;42.366;23.818;2022-07-23T06:49:32;94445.03;;;23.76;71.29
40384;BME280;26097;42.366;23.818;2022-07-23T06:52:32;94447.06;;;23.96;71.53
40384;BME280;26097;42.366;23.818;2022-07-23T06:55:33;94441.94;;;24.16;71.22
40384;BME280;26097;42.366;23.818;2022-07-23T06:58:35;94448.25;;;24.37;69.40
40384;BME280;26097;42.366;23.818;2022-07-23T07:01:36;94442.25;;;24.57;70.14
40384;BME280;26097;42.366;23.818;2022-07-23T07:04:36;94439.84;;;24.68;68.70
40384;BME280;26097;42.366;23.818;2022-07-23T07:07:37;94440.19;;;24.87;67.20
40384;BME280;26097;42.366;23.818;2022-07-23T07:10:37;94440.31;;;25.07;65.68
40384;BME280;26097;42.366;23.818;2022-07-23T07:13:38;94433.00;;;25.30;64.24
40384;BME280;26097;42.366;23.818;2022-07-23T07:16:38;94429.59;;;25.49;64.31
40384;BME280;26097;42.366;23.818;2022-07-23T07:19:39;94432.72;;;25.73;61.93
40384;BME280;26097;42.366;23.818;2022-07-23T07:22:39;94430.50;;;25.90;60.60
40384;BME280;26097;42.366;23.818;2022-07-23T07:25:40;94422.31;;;26.12;62.35
40384;BME280;26097;42.366;23.818;2022-07-23T07:28:40;94426.66;;;26.27;63.81
40384;BME280;26097;42.366;23.818;2022-07-23T07:31:41;94418.00;;;26.45;60.12
40384;BME280;26097;42.366;23.818;2022-07-23T07:34:41;94419.84;;;26.58;58.45
40384;BME280;26097;42.366;23.818;2022-07-23T07:37:41;94414.03;;;26.74;56.56
40384;BME280;26097;42.366;23.818;2022-07-23T07:40:42;94409.72;;;26.93;56.51
40384;BME280;26097;42.366;23.818;2022-07-23T07:43:42;94409.84;;;27.12;53.59
40384;BME280;26097;42.366;23.818;2022-07-23T07:46:43;94400.28;;;27.30;52.28
40384;BME280;26097;42.366;23.818;2022-07-23T07:49:43;94398.31;;;27.50;52.58
40384;BME280;26097;42.366;23.818;2022-07-23T07:52:44;94397.25;;;27.65;49.38
40384;BME280;26097;42.366;23.818;2022-07-23T07:55:44;94400.38;;;27.94;46.63
40384;BME280;26097;42.366;23.818;2022-07-23T07:58:45;94401.69;;;28.10;45.15
40384;BME280;26097;42.366;23.818;2022-07-23T08:01:46;94395.97;;;28.32;42.25
40384;BME280;26097;42.366;23.818;2022-07-23T08:04:46;94388.41;;;28.47;43.23
40384;BME280;26097;42.366;23.818;2022-07-23T08:07:47;94391.31;;;28.64;41.31
40384;BME280;26097;42.366;23.818;2022-07-23T08:10:48;94399.63;;;28.82;41.59
40384;BME280;26097;42.366;23.818;2022-07-23T08:13:48;94396.50;;;29.03;40.81
40384;BME280;26097;42.366;23.818;2022-07-23T08:16:48;94392.59;;;29.18;41.68
40384;BME280;26097;42.366;23.818;2022-07-23T08:19:49;94386.56;;;29.41;39.34
40384;BME280;26097;42.366;23.818;2022-07-23T08:22:55;94383.19;;;29.46;38.79
40384;BME280;26097;42.366;23.818;2022-07-23T08:25:56;94380.41;;;29.53;39.85
40384;BME280;26097;42.366;23.818;2022-07-23T08:28:57;94372.44;;;29.76;37.34
40384;BME280;26097;42.366;23.818;2022-07-23T08:31:57;94376.91;;;29.95;36.64
40384;BME280;26097;42.366;23.818;2022-07-23T08:34:58;94380.81;;;30.11;37.19
40384;BME280;26097;42.366;23.818;2022-07-23T08:38:00;94379.09;;;30.40;33.56
40384;BME280;26097;42.366;23.818;2022-07-23T08:41:01;94380.00;;;30.46;32.73
40384;BME280;26097;42.366;23.818;2022-07-23T08:44:02;94383.91;;;30.62;32.00
40384;BME280;26097;42.366;23.818;2022-07-23T08:47:03;94376.03;;;30.84;30.59
40384;BME280;26097;42.366;23.818;2022-07-23T08:50:04;94378.38;;;30.81;30.53
40384;BME280;26097;42.366;23.818;2022-07-23T08:53:06;94379.16;;;30.93;30.83
40384;BME280;26097;42.366;23.818;2022-07-23T08:56:08;94373.47;;;30.89;29.99
40384;BME280;26097;42.366;23.818;2022-07-23T08:59:08;94379.84;;;31.12;31.54
40384;BME280;26097;42.366;23.818;2022-07-23T09:02:09;94372.25;;;31.09;29.68
40384;BME280;26097;42.366;23.818;2022-07-23T09:05:10;94377.00;;;31.19;30.96
40384;BME280;26097;42.366;23.818;2022-07-23T09:08:15;94370.75;;;31.42;30.65
40384;BME280;26097;42.366;23.818;2022-07-23T09:11:17;94375.19;;;31.48;30.50
40384;BME280;26097;42.366;23.818;2022-07-23T09:14:35;94379.03;;;31.53;30.87
40384;BME280;26097;42.366;23.818;2022-07-23T09:17:38;94369.88;;;31.54;30.74
40384;BME280;26097;42.366;23.818;2022-07-23T09:20:39;94368.63;;;31.44;29.67
40384;BME280;26097;42.366;23.818;2022-07-23T09:23:45;94369.09;;;31.41;29.08
40384;BME280;26097;42.366;23.818;2022-07-23T09:26:47;94372.44;;;31.60;30.50
40384;BME280;26097;42.366;23.818;2022-07-23T09:29:55;94368.19;;;31.94;31.09
40384;BME280;26097;42.366;23.818;2022-07-23T09:33:10;94360.25;;;31.87;29.15
40384;BME280;26097;42.366;23.818;2022-07-23T09:36:11;94372.66;;;31.88;28.95
40384;BME280;26097;42.366;23.818;2022-07-23T09:39:13;94366.28;;;32.11;30.23
40384;BME280;26097;42.366;23.818;2022-07-23T09:42:20;94366.63;;;32.15;29.65
40384;BME280;26097;42.366;23.818;2022-07-23T09:45:21;94366.31;;;32.28;28.33
40384;BME280;26097;42.366;23.818;2022-07-23T09:48:22;94365.16;;;32.24;28.41
40384;BME280;26097;42.366;23.818;2022-07-23T09:51:23;94367.31;;;32.39;29.87
40384;BME280;26097;42.366;23.818;2022-07-23T09:57:36;94354.06;;;32.38;29.09
40384;BME280;26097;42.366;23.818;2022-07-23T10:00:40;94361.75;;;32.46;28.48
40384;BME280;26097;42.366;23.818;2022-07-23T10:03:41;94350.91;;;32.63;28.59
40384;BME280;26097;42.366;23.818;2022-07-23T10:06:43;94344.63;;;32.57;29.53
40384;BME280;26097;42.366;23.818;2022-07-23T10:09:47;94348.78;;;32.65;29.09
40384;BME280;26097;42.366;23.818;2022-07-23T10:12:48;94345.91;;;32.72;29.22
40384;BME280;26097;42.366;23.818;2022-07-23T10:15:52;94358.44;;;32.61;28.77
40384;BME280;26097;42.366;23.818;2022-07-23T10:18:52;94341.75;;;32.64;29.10
40384;BME280;26097;42.366;23.818;2022-07-23T10:21:57;94345.03;;;33.11;28.91
40384;BME280;26097;42.366;23.818;2022-07-23T10:28:41;94330.19;;;33.08;26.95
40384;BME280;26097;42.366;23.818;2022-07-23T10:35:09;94333.66;;;33.31;25.14
40384;BME280;26097;42.366;23.818;2022-07-23T10:38:18;94334.22;;;33.33;25.66
40384;BME280;26097;42.366;23.818;2022-07-23T10:41:41;94321.66;;;33.44;25.23
40384;BME280;26097;42.366;23.818;2022-07-23T10:44:46;94317.16;;;33.82;26.75
40384;BME280;26097;42.366;23.818;2022-07-23T10:47:48;94313.00;;;33.69;25.61
40384;BME280;26097;42.366;23.818;2022-07-23T10:51:12;94308.19;;;33.76;26.45
40384;BME280;26097;42.366;23.818;2022-07-23T10:54:22;94305.44;;;33.71;24.40
40384;BME280;26097;42.366;23.818;2022-07-23T10:57:26;94303.19;;;33.90;24.32
40384;BME280;26097;42.366;23.818;2022-07-23T11:00:29;94305.78;;;34.13;25.84
40384;BME280;26097;42.366;23.818;2022-07-23T11:03:34;94296.53;;;34.03;24.13
40384;BME280;26097;42.366;23.818;2022-07-23T11:07:06;94296.72;;;34.35;24.64
40384;BME280;26097;42.366;23.818;2022-07-23T11:10:39;94301.47;;;34.17;23.16
40384;BME280;26097;42.366;23.818;2022-07-23T11:13:44;94299.81;;;34.11;23.79
40384;BME280;26097;42.366;23.818;2022-07-23T11:16:46;94294.88;;;34.40;24.97
40384;BME280;26097;42.366;23.818;2022-07-23T11:23:13;94289.69;;;34.33;24.90
40384;BME280;26097;42.366;23.818;2022-07-23T11:26:36;94280.09;;;34.58;23.99
40384;BME280;26097;42.366;23.818;2022-07-23T11:29:40;94280.09;;;34.58;24.08
40384;BME280;26097;42.366;23.818;2022-07-23T11:32:41;94275.91;;;34.83;24.73
40384;BME280;26097;42.366;23.818;2022-07-23T11:35:44;94270.03;;;35.07;25.21
40384;BME280;26097;42.366;23.818;2022-07-23T11:38:49;94270.59;;;35.04;22.29
40384;BME280;26097;42.366;23.818;2022-07-23T11:41:51;94267.88;;;35.04;23.22
40384;BME280;26097;42.366;23.818;2022-07-23T11:44:52;94267.63;;;35.21;23.89
40384;BME280;26097;42.366;23.818;2022-07-23T11:47:52;94267.94;;;35.40;23.80
40384;BME280;26097;42.366;23.818;2022-07-23T11:50:54;94259.75;;;35.14;23.54
40384;BME280;26097;42.366;23.818;2022-07-23T11:54:05;94261.84;;;34.97;21.12
40384;BME280;26097;42.366;23.818;2022-07-23T11:57:06;94259.53;;;35.42;22.77
40384;BME280;26097;42.366;23.818;2022-07-23T12:00:19;94257.63;;;35.27;22.58
40384;BME280;26097;42.366;23.818;2022-07-23T12:03:20;94251.41;;;35.47;21.91
40384;BME280;26097;42.366;23.818;2022-07-23T12:06:20;94257.63;;;35.27;22.05
40384;BME280;26097;42.366;23.818;2022-07-23T12:09:21;94250.06;;;35.44;22.26
40384;BME280;26097;42.366;23.818;2022-07-23T12:12:21;94249.28;;;35.59;22.50
40384;BME280;26097;42.366;23.818;2022-07-23T12:15:28;94234.38;;;35.72;22.26
40384;BME280;26097;42.366;23.818;2022-07-23T12:18:30;94234.06;;;36.00;22.25
40384;BME280;26097;42.366;23.818;2022-07-23T12:21:31;94234.34;;;36.09;21.93
40384;BME280;26097;42.366;23.818;2022-07-23T12:24:52;94230.03;;;35.87;20.65
40384;BME280;26097;42.366;23.818;2022-07-23T12:28:06;94237.34;;;35.66;20.15
40384;BME280;26097;42.366;23.818;2022-07-23T12:31:06;94214.59;;;35.72;20.71
40384;BME280;26097;42.366;23.818;2022-07-23T12:34:14;94221.09;;;35.55;18.86
40384;BME280;26097;42.366;23.818;2022-07-23T12:37:27;94227.31;;;35.56;17.80
40384;BME280;26097;42.366;23.818;2022-07-23T12:40:29;94218.09;;;35.72;18.72
40384;BME280;26097;42.366;23.818;2022-07-23T12:43:36;94211.03;;;36.18;19.10
40384;BME280;26097;42.366;23.818;2022-07-23T12:46:37;94206.03;;;36.56;20.42
40384;BME280;26097;42.366;23.818;2022-07-23T12:49:37;94217.53;;;36.12;20.22
40384;BME280;26097;42.366;23.818;2022-07-23T12:52:38;94213.22;;;35.74;19.20
40384;BME280;26097;42.366;23.818;2022-07-23T12:55:39;94203.94;;;36.27;19.87
40384;BME280;26097;42.366;23.818;2022-07-23T12:58:41;94209.13;;;36.90;20.20
40384;BME280;26097;42.366;23.818;2022-07-23T13:01:44;94204.56;;;36.80;18.71
40384;BME280;26097;42.366;23.818;2022-07-23T13:04:48;94201.34;;;37.23;19.56
40384;BME280;26097;42.366;23.818;2022-07-23T13:07:49;94198.66;;;37.18;18.98
40384;BME280;26097;42.366;23.818;2022-07-23T13:10:49;94197.47;;;37.34;17.76
40384;BME280;26097;42.366;23.818;2022-07-23T13:13:51;94202.81;;;37.44;18.75
40384;BME280;26097;42.366;23.818;2022-07-23T13:16:52;94190.81;;;37.51;19.79
40384;BME280;26097;42.366;23.818;2022-07-23T13:19:53;94191.53;;;37.62;18.66
40384;BME280;26097;42.366;23.818;2022-07-23T13:22:53;94193.66;;;37.70;19.76
40384;BME280;26097;42.366;23.818;2022-07-23T13:25:54;94192.31;;;37.67;19.51
40384;BME280;26097;42.366;23.818;2022-07-23T13:28:54;94190.63;;;37.71;20.90
40384;BME280;26097;42.366;23.818;2022-07-23T13:31:55;94190.94;;;36.19;23.74
40384;BME280;26097;42.366;23.818;2022-07-23T13:34:55;94192.59;;;35.06;21.17
40384;BME280;26097;42.366;23.818;2022-07-23T13:37:59;94194.31;;;34.54;20.73
40384;BME280;26097;42.366;23.818;2022-07-23T13:40:59;94197.22;;;34.42;21.48
40384;BME280;26097;42.366;23.818;2022-07-23T13:44:00;94194.59;;;34.57;24.58
40384;BME280;26097;42.366;23.818;2022-07-23T13:47:00;94193.91;;;34.29;24.19
40384;BME280;26097;42.366;23.818;2022-07-23T13:50:01;94197.09;;;33.73;26.14
40384;BME280;26097;42.366;23.818;2022-07-23T13:53:03;94193.50;;;33.62;23.76
40384;BME280;26097;42.366;23.818;2022-07-23T13:56:04;94197.34;;;33.71;28.23
40384;BME280;26097;42.366;23.818;2022-07-23T13:59:04;94191.97;;;34.88;23.60
40384;BME280;26097;42.366;23.818;2022-07-23T14:02:05;94182.84;;;35.88;23.13
40384;BME280;26097;42.366;23.818;2022-07-23T14:05:08;94187.53;;;36.64;20.76
40384;BME280;26097;42.366;23.818;2022-07-23T14:08:10;94181.28;;;37.13;23.80
40384;BME280;26097;42.366;23.818;2022-07-23T14:11:12;94175.53;;;37.25;20.93
40384;BME280;26097;42.366;23.818;2022-07-23T14:14:12;94176.19;;;37.41;20.12
40384;BME280;26097;42.366;23.818;2022-07-23T14:17:13;94176.84;;;37.92;19.48
40384;BME280;26097;42.366;23.818;2022-07-23T14:20:14;94177.53;;;37.79;17.94
40384;BME280;26097;42.366;23.818;2022-07-23T14:23:15;94176.31;;;37.90;18.38
40384;BME280;26097;42.366;23.818;2022-07-23T14:26:15;94182.78;;;37.35;19.89
40384;BME280;26097;42.366;23.818;2022-07-23T14:29:16;94181.22;;;35.71;19.56
40384;BME280;26097;42.366;23.818;2022-07-23T14:32:16;94174.88;;;36.33;20.62
40384;BME280;26097;42.366;23.818;2022-07-23T14:35:17;94178.25;;;36.70;19.19
40384;BME280;26097;42.366;23.818;2022-07-23T14:38:19;94176.47;;;37.05;19.16
40384;BME280;26097;42.366;23.818;2022-07-23T14:41:19;94172.72;;;37.36;20.21
40384;BME280;26097;42.366;23.818;2022-07-23T14:44:20;94175.41;;;36.35;20.84
40384;BME280;26097;42.366;23.818;2022-07-23T14:47:20;94177.97;;;35.49;20.24
40384;BME280;26097;42.366;23.818;2022-07-23T14:50:21;94174.13;;;36.01;20.88
40384;BME280;26097;42.366;23.818;2022-07-23T14:53:21;94175.50;;;36.09;21.42
40384;BME280;26097;42.366;23.818;2022-07-23T14:56:21;94166.59;;;35.41;21.20
40384;BME280;26097;42.366;23.818;2022-07-23T14:59:22;94164.91;;;34.94;24.07
40384;BME280;26097;42.366;23.818;2022-07-23T15:02:23;94159.22;;;34.95;23.18
40384;BME280;26097;42.366;23.818;2022-07-23T15:05:24;94155.06;;;34.51;24.25
40384;BME280;26097;42.366;23.818;2022-07-23T15:08:24;94163.84;;;34.15;23.63
40384;BME280;26097;42.366;23.818;2022-07-23T15:11:25;94156.47;;;34.00;22.66
40384;BME280;26097;42.366;23.818;2022-07-23T15:14:26;94151.47;;;33.11;30.65
40384;BME280;26097;42.366;23.818;2022-07-23T15:17:27;94154.84;;;32.24;32.38
40384;BME280;26097;42.366;23.818;2022-07-23T15:20:27;94159.66;;;31.83;32.73
40384;BME280;26097;42.366;23.818;2022-07-23T15:23:28;94152.53;;;32.33;32.68
40384;BME280;26097;42.366;23.818;2022-07-23T15:26:29;94146.91;;;33.44;32.29
40384;BME280;26097;42.366;23.818;2022-07-23T15:29:30;94142.75;;;33.74;31.76
40384;BME280;26097;42.366;23.818;2022-07-23T15:32:30;94135.72;;;34.27;31.41
40384;BME280;26097;42.366;23.818;2022-07-23T15:35:31;94137.75;;;34.57;32.07
40384;BME280;26097;42.366;23.818;2022-07-23T15:38:32;94137.56;;;34.90;31.77
40384;BME280;26097;42.366;23.818;2022-07-23T15:41:32;94130.03;;;35.18;25.98
40384;BME280;26097;42.366;23.818;2022-07-23T15:44:33;94140.31;;;35.42;24.81
40384;BME280;26097;42.366;23.818;2022-07-23T15:47:33;94143.28;;;35.66;24.34
40384;BME280;26097;42.366;23.818;2022-07-23T15:50:34;94137.31;;;35.74;27.62
40384;BME280;26097;42.366;23.818;2022-07-23T15:53:34;94135.72;;;35.42;24.46
40384;BME280;26097;42.366;23.818;2022-07-23T15:56:35;94133.56;;;35.39;23.89
40384;BME280;26097;42.366;23.818;2022-07-23T15:59:35;94131.63;;;35.03;26.84
40384;BME280;26097;42.366;23.818;2022-07-23T16:02:35;94138.28;;;34.54;30.51